createdAt,value
2019-01-29T00:01:14.068Z,22.60
2019-01-29T00:03:42.306Z,22.70
2019-01-29T00:06:10.103Z,22.70
2019-01-29T00:08:38.393Z,22.80
2019-01-29T00:11:06.247Z,22.80
2019-01-29T00:13:34.227Z,22.70
2019-01-29T00:16:02.085Z,22.60
2019-01-29T00:18:29.877Z,22.50
2019-01-29T00:20:57.716Z,22.40
2019-01-29T00:23:25.588Z,22.30
2019-01-29T00:25:53.551Z,22.20
2019-01-29T00:28:21.733Z,22.10
2019-01-29T00:30:49.803Z,22.10
2019-01-29T00:33:17.551Z,22.00
2019-01-29T00:35:45.424Z,22.00
2019-01-29T00:38:13.713Z,21.90
2019-01-29T00:40:42.089Z,21.80
2019-01-29T00:43:10.162Z,21.70
2019-01-29T00:45:38.019Z,21.60
2019-01-29T00:48:05.889Z,21.60
2019-01-29T00:50:33.645Z,21.50
2019-01-29T00:53:01.431Z,21.40
2019-01-29T00:55:29.554Z,21.40
2019-01-29T00:57:57.351Z,21.30
2019-01-29T01:00:25.188Z,21.30
2019-01-29T01:02:52.946Z,21.30
2019-01-29T01:05:21.574Z,21.20
2019-01-29T01:07:49.341Z,21.20
2019-01-29T01:10:19.331Z,21.20
2019-01-29T01:12:47.127Z,21.20
2019-01-29T01:15:15.095Z,21.10
2019-01-29T01:17:42.950Z,21.10
2019-01-29T01:20:11.763Z,21.10
2019-01-29T01:22:39.825Z,21.10
2019-01-29T01:25:09.084Z,21.10
2019-01-29T01:27:36.976Z,21.00
2019-01-29T01:30:12.455Z,21.00
2019-01-29T01:32:40.270Z,21.00
2019-01-29T01:35:08.380Z,21.00
2019-01-29T01:37:36.332Z,20.90
2019-01-29T08:00:42.927Z,20.30
2019-01-29T08:03:10.800Z,20.30
2019-01-29T08:05:38.542Z,20.30
2019-01-29T08:08:08.365Z,20.30
2019-01-29T08:10:35.935Z,20.40
2019-01-29T08:13:03.791Z,20.40
2019-01-29T08:15:31.601Z,20.40
2019-01-29T08:18:01.318Z,20.40
2019-01-29T08:20:33.605Z,20.40
2019-01-29T08:23:01.510Z,20.40
2019-01-29T08:25:29.473Z,20.40
2019-01-29T08:27:57.666Z,20.40
2019-01-29T08:30:46.797Z,20.40
2019-01-29T08:33:14.685Z,20.40
2019-01-29T08:35:43.688Z,20.50
2019-01-29T08:38:11.750Z,20.50
2019-01-29T08:40:39.820Z,20.50
2019-01-29T08:43:07.892Z,20.50
2019-01-29T08:45:37.552Z,20.60
2019-01-29T08:48:05.769Z,20.60
2019-01-29T08:50:35.383Z,20.60
2019-01-29T08:53:03.148Z,20.60
2019-01-29T08:55:32.291Z,20.60
2019-01-29T08:58:00.109Z,20.60
2019-01-29T09:00:27.972Z,20.60
2019-01-29T09:02:56.151Z,20.60
2019-01-29T09:05:24.226Z,20.60
2019-01-29T09:07:52.285Z,20.60
2019-01-29T09:10:19.758Z,20.60
2019-01-29T09:12:46.285Z,20.60
2019-01-29T09:15:14.056Z,20.60
2019-01-29T09:17:40.586Z,20.60
2019-01-29T09:20:08.657Z,20.60
2019-01-29T09:22:35.191Z,20.60
2019-01-29T09:25:01.730Z,20.60
2019-01-29T09:27:28.262Z,20.60
2019-01-29T09:29:56.818Z,20.60
2019-01-29T09:32:23.002Z,20.50
2019-01-29T09:34:49.716Z,20.60
2019-01-29T09:37:16.248Z,20.60
2019-01-29T09:39:42.784Z,20.60
2019-01-29T09:42:09.319Z,20.60
2019-01-29T09:44:35.853Z,20.60
2019-01-29T09:47:02.697Z,20.50
2019-01-29T09:49:29.231Z,20.50
2019-01-29T09:51:55.777Z,20.50
2019-01-29T09:54:22.027Z,20.50
2019-01-29T09:56:48.532Z,20.50
2019-01-29T09:59:14.758Z,20.50
2019-01-29T10:01:41.295Z,20.50
2019-01-29T10:04:07.834Z,20.50
2019-01-29T10:06:34.366Z,20.50
2019-01-29T10:09:00.901Z,20.50
2019-01-29T10:11:28.590Z,20.50
2019-01-29T10:13:55.202Z,20.40
2019-01-29T10:16:21.743Z,20.40
2019-01-29T10:18:48.271Z,20.40
2019-01-29T10:21:14.805Z,20.40
2019-01-29T10:23:41.340Z,20.40
2019-01-29T10:26:07.875Z,20.40
2019-01-29T10:28:34.414Z,20.40
2019-01-29T10:31:00.950Z,20.40
2019-01-29T10:33:29.474Z,20.40
2019-01-29T10:35:56.000Z,20.40
2019-01-29T10:38:22.397Z,20.40
2019-01-29T10:40:49.154Z,20.40
2019-01-29T10:43:16.744Z,20.40
2019-01-29T10:45:42.878Z,20.40
2019-01-29T10:48:09.489Z,20.40
2019-01-29T10:50:35.998Z,20.40
2019-01-29T10:53:02.532Z,20.40
2019-01-29T10:55:29.080Z,20.40
2019-01-29T10:57:55.374Z,20.40
2019-01-29T11:00:27.361Z,20.30
2019-01-29T11:02:53.896Z,20.30
2019-01-29T11:05:20.160Z,20.30
2019-01-29T11:07:46.693Z,20.30
2019-01-29T11:10:14.602Z,20.30
2019-01-29T11:12:42.929Z,20.30
2019-01-29T11:15:11.181Z,20.30
2019-01-29T11:17:37.718Z,20.30
2019-01-29T11:20:06.092Z,20.40
2019-01-29T11:22:32.628Z,20.40
2019-01-29T11:24:59.163Z,20.30
2019-01-29T11:27:25.396Z,20.30
2019-01-29T11:29:52.239Z,20.40
2019-01-29T11:32:19.540Z,20.30
2019-01-29T11:34:46.227Z,20.30
2019-01-29T11:37:14.631Z,20.30
2019-01-29T11:39:41.147Z,20.30
2019-01-29T11:42:07.984Z,20.30
2019-01-29T11:44:34.522Z,20.30
2019-01-29T11:47:01.363Z,20.30
2019-01-29T11:49:27.901Z,20.30
2019-01-29T11:51:55.058Z,20.40
2019-01-29T11:54:21.581Z,20.30
2019-01-29T11:56:48.426Z,20.30
2019-01-29T11:59:14.967Z,20.30
2019-01-29T12:01:41.395Z,20.30
2019-01-29T12:04:08.038Z,20.30
2019-01-29T12:06:34.568Z,20.30
2019-01-29T12:09:01.412Z,20.30
2019-01-29T12:11:27.944Z,20.40
2019-01-29T12:13:54.482Z,20.40
2019-01-29T12:16:20.938Z,20.40
2019-01-29T12:18:48.196Z,20.40
2019-01-29T12:21:14.396Z,20.50
2019-01-29T12:23:40.647Z,20.50
2019-01-29T12:26:13.081Z,20.50
2019-01-29T12:28:35.229Z,20.50
2019-01-29T12:31:01.769Z,20.50
2019-01-29T12:33:31.508Z,20.50
2019-01-29T12:35:57.906Z,20.50
2019-01-29T12:38:24.753Z,20.50
2019-01-29T12:40:51.284Z,20.50
2019-01-29T12:43:18.130Z,20.50
2019-01-29T12:45:44.970Z,20.50
2019-01-29T12:48:11.811Z,20.50
2019-01-29T12:50:40.197Z,20.50
2019-01-29T12:53:11.644Z,20.50
2019-01-29T12:55:38.177Z,20.60
2019-01-29T12:58:05.062Z,20.50
2019-01-29T13:00:35.247Z,20.60
2019-01-29T13:03:01.776Z,20.50
2019-01-29T13:05:28.630Z,20.50
2019-01-29T13:07:55.461Z,20.50
2019-01-29T13:10:25.685Z,20.50
2019-01-29T13:12:52.534Z,20.50
2019-01-29T13:15:20.904Z,20.40
2019-01-29T13:17:47.440Z,20.50
2019-01-29T13:20:13.978Z,20.50
2019-01-29T13:22:40.829Z,20.50
2019-01-29T13:25:08.582Z,20.60
2019-01-29T13:27:34.974Z,20.60
2019-01-29T13:30:01.653Z,20.60
2019-01-29T13:32:28.505Z,20.60
2019-01-29T13:34:55.344Z,20.60
2019-01-29T13:37:21.876Z,20.60
2019-01-29T13:39:48.722Z,20.60
2019-01-29T13:42:15.251Z,20.60
2019-01-29T13:44:43.039Z,20.70
2019-01-29T13:47:09.550Z,20.70
2019-01-29T13:49:37.112Z,20.70
2019-01-29T13:52:05.693Z,20.70
2019-01-29T13:54:31.981Z,20.70
2019-01-29T13:57:01.225Z,20.70
2019-01-29T13:59:28.065Z,20.60
2019-01-29T14:01:54.907Z,20.60
2019-01-29T14:04:24.656Z,20.60
2019-01-29T14:06:51.052Z,20.60
2019-01-29T14:09:17.900Z,20.60
2019-01-29T14:11:44.432Z,20.70
2019-01-29T14:14:11.272Z,20.80
2019-01-29T14:16:39.569Z,20.90
2019-01-29T14:19:06.182Z,21.00
2019-01-29T14:21:32.720Z,21.10
2019-01-29T14:23:59.284Z,21.10
2019-01-29T14:26:25.790Z,21.20
2019-01-29T14:28:52.641Z,21.40
2019-01-29T14:31:19.476Z,21.50
2019-01-29T14:33:46.057Z,21.60
2019-01-29T14:36:16.862Z,21.60
2019-01-29T14:38:42.768Z,21.60
2019-01-29T14:41:09.229Z,21.60
2019-01-29T14:43:37.689Z,21.70
2019-01-29T14:46:04.222Z,21.70
2019-01-29T14:48:30.758Z,21.70
2019-01-29T14:50:57.291Z,21.80
2019-01-29T14:53:24.131Z,21.80
2019-01-29T14:55:50.979Z,21.80
2019-01-29T14:58:17.820Z,21.80
2019-01-29T15:00:44.662Z,21.80
2019-01-29T15:03:11.453Z,21.90
2019-01-29T15:05:38.346Z,21.90
2019-01-29T15:08:04.882Z,21.90
2019-01-29T15:10:31.724Z,21.90
2019-01-29T15:12:59.111Z,22.00
2019-01-29T15:15:26.510Z,22.00
2019-01-29T15:18:00.853Z,22.00
2019-01-29T15:20:27.388Z,22.00
2019-01-29T15:22:54.231Z,22.00
2019-01-29T15:25:20.773Z,22.00
2019-01-29T15:27:47.610Z,21.90
2019-01-29T15:30:19.186Z,21.90
2019-01-29T15:32:45.904Z,21.90
2019-01-29T15:35:12.746Z,21.90
2019-01-29T15:37:39.281Z,21.90
2019-01-29T15:40:07.664Z,21.90
2019-01-29T15:42:34.223Z,21.90
2019-01-29T15:45:01.036Z,21.90
2019-01-29T15:47:27.572Z,22.00
2019-01-29T15:49:54.414Z,22.10
2019-01-29T15:52:21.263Z,22.00
2019-01-29T15:54:48.107Z,21.90
2019-01-29T15:57:14.944Z,21.90
2019-01-29T15:59:42.908Z,21.90
2019-01-29T16:02:09.856Z,22.00
2019-01-29T16:04:39.602Z,22.00
2019-01-29T16:07:06.304Z,22.10
2019-01-29T16:33:49.898Z,22.50
2019-01-29T16:36:17.799Z,24.90
2019-01-29T16:38:45.687Z,24.20
2019-01-29T16:41:14.423Z,23.80
2019-01-29T16:43:42.310Z,23.60
2019-01-29T16:46:11.435Z,23.50
2019-01-29T16:48:39.354Z,23.50
2019-01-29T16:51:07.523Z,23.40
2019-01-29T16:53:35.908Z,23.40
2019-01-29T16:56:03.761Z,23.40
2019-01-29T16:58:31.729Z,23.40
2019-01-29T17:00:59.915Z,23.40
2019-01-29T17:03:27.791Z,23.40
2019-01-29T17:05:56.778Z,23.40
2019-01-29T17:08:27.924Z,23.50
2019-01-29T17:10:57.614Z,23.50
2019-01-29T17:13:25.696Z,23.60
2019-01-29T17:15:55.397Z,23.60
2019-01-29T17:18:23.194Z,23.70
2019-01-29T17:20:51.150Z,23.70
2019-01-29T17:23:19.321Z,23.80
2019-01-29T17:25:47.177Z,23.70
2019-01-29T17:28:15.157Z,23.60
2019-01-29T17:30:44.146Z,23.60
2019-01-29T17:33:14.192Z,23.50
2019-01-29T17:35:43.213Z,23.50
2019-01-29T17:38:11.222Z,23.50
2019-01-29T17:40:39.200Z,23.40
2019-01-29T17:43:07.576Z,23.40
2019-01-29T17:45:37.083Z,23.40
2019-01-29T17:48:06.311Z,23.40
2019-01-29T17:50:36.747Z,23.40
2019-01-29T17:53:04.778Z,23.40
2019-01-29T17:55:33.473Z,23.40
2019-01-29T17:58:01.550Z,23.40
2019-01-29T18:00:31.970Z,23.40
2019-01-29T18:02:59.917Z,23.40
2019-01-29T18:05:28.798Z,23.30
2019-01-29T18:07:56.793Z,23.30
2019-01-29T18:10:24.747Z,23.30
2019-01-29T18:12:53.030Z,23.30
2019-01-29T18:15:22.089Z,23.20
2019-01-29T18:17:50.001Z,23.30
2019-01-29T18:20:19.911Z,23.30
2019-01-29T18:22:47.674Z,23.20
2019-01-29T18:25:15.486Z,23.20
2019-01-29T18:27:43.392Z,23.20
2019-01-29T18:30:12.905Z,23.20
2019-01-29T18:32:43.876Z,23.20
2019-01-29T18:35:11.770Z,23.20
2019-01-29T18:37:40.070Z,23.20
2019-01-29T18:40:09.529Z,23.20
2019-01-29T18:42:37.353Z,23.20
2019-01-29T18:45:09.841Z,23.20
2019-01-29T18:47:38.775Z,23.20
2019-01-29T18:50:08.243Z,23.10
2019-01-29T18:52:39.384Z,23.20
2019-01-29T18:55:08.477Z,23.10
2019-01-29T18:57:37.417Z,23.00
2019-01-29T19:00:07.961Z,23.00
2019-01-29T19:02:38.125Z,23.00
2019-01-29T19:05:08.695Z,23.00
2019-01-29T19:07:36.592Z,23.00
2019-01-29T19:10:06.138Z,23.00
2019-01-29T19:12:34.398Z,23.00
2019-01-29T19:15:02.322Z,23.00
2019-01-29T19:17:31.309Z,23.00
2019-01-29T19:19:59.534Z,23.00
2019-01-29T19:22:27.409Z,23.00
2019-01-29T19:24:55.373Z,23.00
2019-01-29T19:27:23.442Z,23.00
2019-01-29T19:29:51.417Z,23.00
2019-01-29T19:32:19.588Z,23.10
2019-01-29T19:34:49.385Z,23.10
2019-01-29T19:37:20.540Z,23.00
2019-01-29T19:39:48.432Z,23.00
2019-01-29T19:42:27.142Z,23.00
2019-01-29T19:44:46.354Z,23.00
2019-01-29T19:47:14.465Z,23.00
2019-01-29T19:49:42.431Z,23.00
2019-01-29T19:52:10.608Z,23.00
2019-01-29T19:54:38.678Z,23.00
2019-01-29T19:57:08.165Z,23.00
2019-01-29T19:59:36.666Z,23.00
2019-01-29T20:02:04.605Z,23.00
2019-01-29T20:04:34.948Z,23.00
2019-01-29T20:07:04.890Z,23.00
2019-01-29T20:09:32.643Z,23.00
2019-01-29T20:12:00.468Z,23.00
2019-01-29T20:14:28.592Z,23.00
2019-01-29T20:16:57.637Z,23.00
2019-01-29T20:19:27.349Z,23.00
2019-01-29T20:21:55.258Z,23.00
2019-01-29T20:24:23.836Z,23.00
2019-01-29T20:26:51.902Z,23.00
2019-01-29T20:29:19.769Z,23.00
2019-01-29T20:31:47.638Z,23.00
2019-01-29T20:34:16.829Z,23.00
2019-01-29T20:36:49.069Z,23.00
2019-01-29T20:39:17.073Z,23.00
2019-01-29T20:41:45.040Z,23.00
2019-01-29T20:44:12.907Z,23.00
2019-01-29T20:46:41.970Z,23.00
2019-01-29T20:49:10.079Z,23.00
2019-01-29T20:51:38.148Z,23.00
2019-01-29T20:54:06.430Z,23.00
2019-01-29T20:56:34.279Z,23.00
2019-01-29T20:59:02.257Z,23.00
2019-01-29T21:01:30.432Z,23.00
2019-01-29T21:03:58.278Z,23.00
2019-01-29T21:06:28.292Z,23.00
2019-01-29T21:08:56.950Z,23.00
2019-01-29T21:11:26.774Z,23.00
2019-01-29T21:13:55.760Z,23.00
2019-01-29T21:16:24.829Z,23.00
2019-01-29T21:18:52.775Z,23.00
2019-01-29T21:21:20.841Z,23.00
2019-01-29T21:23:49.159Z,23.00
2019-01-29T21:26:17.432Z,23.00
2019-01-29T21:28:45.470Z,23.00
2019-01-29T21:31:15.012Z,23.00
2019-01-29T21:33:42.935Z,23.00
2019-01-29T21:36:14.322Z,23.00
2019-01-29T21:38:42.375Z,23.00
2019-01-29T21:41:10.633Z,23.00
2019-01-29T21:43:38.511Z,23.00
2019-01-29T21:46:06.492Z,23.00
2019-01-29T21:48:34.542Z,23.00
2019-01-29T21:51:02.615Z,23.00
2019-01-29T21:53:30.482Z,23.00
2019-01-29T21:55:58.347Z,23.00
2019-01-29T21:58:26.258Z,23.00
2019-01-29T22:00:54.123Z,23.10
2019-01-29T22:03:21.930Z,23.10
2019-01-29T22:05:51.734Z,23.10
2019-01-29T22:08:19.736Z,23.10
2019-01-29T22:10:47.987Z,23.10
2019-01-29T22:15:43.639Z,23.10
2019-01-29T22:18:12.777Z,23.10
2019-01-29T22:20:41.001Z,23.10
2019-01-29T22:23:08.974Z,23.10
2019-01-29T22:25:37.047Z,23.10
2019-01-29T22:28:05.323Z,23.10
2019-01-29T22:30:34.829Z,23.10
2019-01-29T22:33:02.807Z,23.10
2019-01-29T22:35:30.733Z,23.10
2019-01-29T22:37:59.713Z,23.10
2019-01-29T22:40:28.859Z,23.10
2019-01-29T22:42:57.336Z,23.10
2019-01-29T22:45:25.300Z,23.10
2019-01-29T22:47:53.566Z,23.10
2019-01-29T22:50:23.023Z,23.10
2019-01-29T22:52:51.054Z,23.10
2019-01-29T22:55:19.021Z,23.10
2019-01-29T22:57:46.906Z,23.10
2019-01-29T23:00:23.394Z,23.10
2019-01-29T23:02:51.526Z,23.10
2019-01-29T23:05:21.009Z,23.10
2019-01-29T23:15:14.860Z,23.20
2019-01-29T23:17:42.928Z,23.20
2019-01-29T23:20:13.956Z,23.20
2019-01-29T23:22:42.812Z,23.20
2019-01-29T23:25:11.137Z,23.20
2019-01-29T23:27:39.095Z,23.10
2019-01-29T23:30:11.382Z,23.10
2019-01-29T23:32:39.282Z,23.10
2019-01-29T23:35:07.272Z,23.00
2019-01-29T23:37:35.493Z,22.90
2019-01-29T23:40:04.877Z,22.90
2019-01-29T23:42:32.955Z,22.90
2019-01-29T23:45:00.921Z,22.90
2019-01-29T23:47:30.727Z,22.80
2019-01-29T23:49:58.328Z,22.80
2019-01-29T23:52:26.266Z,22.80
2019-01-29T23:54:54.339Z,22.80
2019-01-29T23:57:22.210Z,22.80
2019-01-29T23:59:53.815Z,22.70
